Terminal Aerodrome Forecast
Issued by NWS

Current Version | Previous Version | Graphics & Text | Print | Product List | Glossary On
Versions: 1 2 3 4 5 6 7 8 9 10 11 12 13 14 15 16 17 18 19 20 21 22 23
152
FTUS41 KILN 251758 AAA
TAFLUK
TAF AMD
KLUK 251758Z 2518/2618 33007KT P6SM BKN024 OVC035
     FM252300 34005KT P6SM SCT035 BKN200
     FM261300 VRB03KT P6SM SCT040 BKN200=

USA.gov is the U.S. government's official web portal to all federal, state and local government web resources and services.